Helene — V7VF9 — position and weather

sailwx.info

Track history (hours):
 
Tides and Currents Weather Stations Pressure Air Temp Water Temp Dewpoint Dewpoint Depression Visibility Wind Speed Wind Dir Waves Ship Positions

Helene

Last reported at 2017-Sep-14 19:20 UTC. Time now 2017-Sep-22 13:49 UTC.
Position S 28°34' W 048°30'.

Length 207 m; draft 8.1 m.

Type: Cargo ship. MMSI: 538006866.

Date/timePositionNaut miles runAvg speedWind from/ knotsBaromVisibWave heightAir tempDewpointWater temp
2017-Sep-14 19:20S 28°34' W 048°30'412.6
2017-Sep-14 19:00S 28°30' W 048°28'713.4
2017-Sep-14 18:30S 28°24' W 048°25'914.0
2017-Sep-14 17:53S 28°15' W 048°22'514.1
2017-Sep-14 17:30S 28°10' W 048°20'714.0
2017-Sep-14 17:00S 28°04' W 048°18'713.7
2017-Sep-14 16:29S 27°56' W 048°16'1113.6
2017-Sep-14 15:39S 27°45' W 048°13'313.6
2017-Sep-14 15:25S 27°42' W 048°13'5111.8
2017-Sep-14 11:07S 26°55' W 048°35'125 6.7
2017-Sep-13 16:36S 25°18' W 047°07'219.5
2017-Sep-13 16:30S 25°17' W 047°06'1719.7
2017-Sep-13 15:37S 25°04' W 046°53'1219.6
2017-Sep-13 15:01S 24°54' W 046°46'319.5
2017-Sep-13 14:53S 24°52' W 046°44'719.6
2017-Sep-13 14:31S 24°46' W 046°39'1019.7
2017-Sep-13 14:01S 24°38' W 046°34'1019.7
2017-Sep-13 13:30S 24°29' W 046°28'1019.8
2017-Sep-13 13:00S 24°19' W 046°26'1019.6
2017-Sep-13 12:30S 24°10' W 046°24'918.5
2017-Sep-13 12:00S 24°01' W 046°21'4 7.8
2017-Sep-13 11:30S 23°59' W 046°17'5 0.2
2017-Sep-12 15:19S 23°55' W 046°21'3 4.2
2017-Sep-12 14:39S 23°57' W 046°19'1 8.3
2017-Sep-12 14:29S 23°58' W 046°18'3 6.4
2017-Sep-12 14:00S 24°00' W 046°20'510.4
2017-Sep-12 13:30S 24°05' W 046°22'510.6
2017-Sep-12 13:00S 24°10' W 046°20'3 5.1
2017-Sep-12 12:30S 24°11' W 046°17'0 0.1
2017-Sep-12 11:48S 24°11' W 046°17'1 4.9
2017-Sep-12 11:30S 24°12' W 046°16'713.9
2017-Sep-12 11:00S 24°15' W 046°09'815.2
2017-Sep-12 10:30S 24°16' W 046°01'815.2
2017-Sep-12 10:00S 24°17' W 045°53'713.9
2017-Sep-12 09:30S 24°18' W 045°45'713.7
2017-Sep-12 09:00S 24°18' W 045°38'714.0
2017-Sep-12 08:30S 24°16' W 045°30'713.9
2017-Sep-12 08:00S 24°14' W 045°23'714.3
2017-Sep-12 07:30S 24°12' W 045°16'714.4
2017-Sep-12 07:00S 24°10' W 045°08'914.5
2017-Sep-12 06:21S 24°07' W 044°58'1614.6
2017-Sep-12 05:16S 24°02' W 044°42'414.3
2017-Sep-12 04:59S 24°01' W 044°38'1114.2
2017-Sep-12 04:12S 23°58' W 044°26'314.2
2017-Sep-12 04:00S 23°57' W 044°23'9914.5
2017-Sep-11 21:07S 23°27' W 042°39'814.9
2017-Sep-11 20:37S 23°25' W 042°31'214.8
2017-Sep-11 20:30S 23°24' W 042°30'815.2
2017-Sep-11 20:00S 23°22' W 042°22'  
Track history (hours):
 
Tides and Currents Weather Stations Pressure Air Temp Water Temp Dewpoint Dewpoint Depression Visibility Wind Speed Wind Dir Waves Ship Positions

Helene

Last reported at 2017-Sep-14 19:20 UTC. Time now 2017-Sep-22 13:49 UTC.
Position S 28°34' W 048°30'.

Length 207 m; draft 8.1 m.

Type: Cargo ship. MMSI: 538006866.

Date/timePositionNaut miles runAvg speedWind from/ knotsBaromVisibWave heightAir tempDewpointWater temp
2017-Sep-14 19:20S 28°34' W 048°30'412.6
2017-Sep-14 19:00S 28°30' W 048°28'713.4
2017-Sep-14 18:30S 28°24' W 048°25'914.0
2017-Sep-14 17:53S 28°15' W 048°22'514.1
2017-Sep-14 17:30S 28°10' W 048°20'714.0
2017-Sep-14 17:00S 28°04' W 048°18'713.7
2017-Sep-14 16:29S 27°56' W 048°16'1113.6
2017-Sep-14 15:39S 27°45' W 048°13'313.6
2017-Sep-14 15:25S 27°42' W 048°13'5111.8
2017-Sep-14 11:07S 26°55' W 048°35'125 6.7
2017-Sep-13 16:36S 25°18' W 047°07'219.5
2017-Sep-13 16:30S 25°17' W 047°06'1719.7
2017-Sep-13 15:37S 25°04' W 046°53'1219.6
2017-Sep-13 15:01S 24°54' W 046°46'319.5
2017-Sep-13 14:53S 24°52' W 046°44'719.6
2017-Sep-13 14:31S 24°46' W 046°39'1019.7
2017-Sep-13 14:01S 24°38' W 046°34'1019.7
2017-Sep-13 13:30S 24°29' W 046°28'1019.8
2017-Sep-13 13:00S 24°19' W 046°26'1019.6
2017-Sep-13 12:30S 24°10' W 046°24'918.5
2017-Sep-13 12:00S 24°01' W 046°21'4 7.8
2017-Sep-13 11:30S 23°59' W 046°17'5 0.2
2017-Sep-12 15:19S 23°55' W 046°21'3 4.2
2017-Sep-12 14:39S 23°57' W 046°19'1 8.3
2017-Sep-12 14:29S 23°58' W 046°18'3 6.4
2017-Sep-12 14:00S 24°00' W 046°20'510.4
2017-Sep-12 13:30S 24°05' W 046°22'510.6
2017-Sep-12 13:00S 24°10' W 046°20'3 5.1
2017-Sep-12 12:30S 24°11' W 046°17'0 0.1
2017-Sep-12 11:48S 24°11' W 046°17'1 4.9
2017-Sep-12 11:30S 24°12' W 046°16'713.9
2017-Sep-12 11:00S 24°15' W 046°09'815.2
2017-Sep-12 10:30S 24°16' W 046°01'815.2
2017-Sep-12 10:00S 24°17' W 045°53'713.9
2017-Sep-12 09:30S 24°18' W 045°45'713.7
2017-Sep-12 09:00S 24°18' W 045°38'714.0
2017-Sep-12 08:30S 24°16' W 045°30'713.9
2017-Sep-12 08:00S 24°14' W 045°23'714.3
2017-Sep-12 07:30S 24°12' W 045°16'714.4
2017-Sep-12 07:00S 24°10' W 045°08'914.5
2017-Sep-12 06:21S 24°07' W 044°58'1614.6
2017-Sep-12 05:16S 24°02' W 044°42'414.3
2017-Sep-12 04:59S 24°01' W 044°38'1114.2
2017-Sep-12 04:12S 23°58' W 044°26'314.2
2017-Sep-12 04:00S 23°57' W 044°23'9914.5
2017-Sep-11 21:07S 23°27' W 042°39'814.9
2017-Sep-11 20:37S 23°25' W 042°31'214.8
2017-Sep-11 20:30S 23°24' W 042°30'815.2
2017-Sep-11 20:00S 23°22' W 042°22'  

Dump ship's entire track history